createdAt,value
2018-08-30T00:02:27.373Z,8.50
2018-08-30T00:05:32.341Z,8.33
2018-08-30T00:08:37.293Z,10.03
2018-08-30T00:11:42.236Z,8.63
2018-08-30T00:14:47.191Z,9.40
2018-08-30T00:17:52.145Z,10.00
2018-08-30T00:20:57.099Z,13.07
2018-08-30T00:24:02.069Z,13.40
2018-08-30T00:27:07.228Z,14.13
2018-08-30T00:30:12.181Z,15.83
2018-08-30T00:33:17.322Z,18.27
2018-08-30T00:36:22.268Z,19.67
2018-08-30T00:39:27.224Z,20.63
2018-08-30T00:42:32.323Z,21.07
2018-08-30T00:45:37.281Z,22.43
2018-08-30T00:48:42.241Z,20.97
2018-08-30T00:51:47.177Z,21.37
2018-08-30T00:54:52.129Z,22.60
2018-08-30T00:57:57.088Z,23.53
2018-08-30T01:01:02.056Z,24.17
2018-08-30T01:04:07.045Z,24.20
2018-08-30T01:07:11.991Z,27.03
2018-08-30T01:10:16.936Z,26.13
2018-08-30T01:13:21.892Z,26.03
2018-08-30T01:16:26.843Z,26.33
2018-08-30T01:19:31.837Z,29.73
2018-08-30T01:22:36.769Z,28.37
2018-08-30T01:25:41.720Z,27.03
2018-08-30T01:28:46.694Z,27.83
2018-08-30T01:31:51.668Z,29.53
2018-08-30T01:34:56.640Z,28.83
2018-08-30T01:38:01.603Z,29.80
2018-08-30T01:41:06.553Z,27.40
2018-08-30T01:44:12.453Z,28.60
2018-08-30T01:47:17.386Z,28.40
2018-08-30T01:50:22.344Z,26.23
2018-08-30T01:53:27.301Z,25.87
2018-08-30T01:56:32.241Z,25.87
2018-08-30T01:59:37.193Z,24.53
2018-08-30T02:02:42.155Z,24.53
2018-08-30T02:05:47.121Z,24.27
2018-08-30T02:08:52.070Z,23.73
2018-08-30T02:11:57.020Z,22.27
2018-08-30T02:15:01.973Z,24.00
2018-08-30T02:18:06.919Z,20.97
2018-08-30T02:21:11.876Z,19.60
2018-08-30T02:24:16.820Z,23.37
2018-08-30T02:27:21.753Z,22.73
2018-08-30T02:30:26.713Z,18.93
2018-08-30T02:33:31.660Z,18.33
2018-08-30T02:36:36.606Z,19.27
2018-08-30T02:39:41.543Z,16.07
2018-08-30T02:42:46.465Z,16.70
2018-08-30T02:45:51.394Z,16.77
2018-08-30T02:48:56.346Z,15.67
2018-08-30T02:52:01.273Z,15.93
2018-08-30T02:55:06.234Z,17.10
2018-08-30T02:58:11.173Z,16.40
2018-08-30T03:01:16.114Z,18.20
2018-08-30T03:04:21.090Z,16.70
2018-08-30T03:07:26.072Z,18.33
2018-08-30T03:10:31.001Z,16.67
2018-08-30T03:13:36.261Z,16.30
2018-08-30T03:16:41.430Z,17.83
2018-08-30T03:19:46.466Z,19.03
2018-08-30T03:22:51.950Z,17.43
2018-08-30T03:25:56.908Z,18.00
2018-08-30T03:29:01.857Z,15.47
2018-08-30T03:32:06.878Z,14.70
2018-08-30T03:35:11.829Z,14.43
2018-08-30T03:38:16.775Z,15.63
2018-08-30T03:41:21.716Z,15.17
2018-08-30T03:44:26.857Z,16.97
2018-08-30T03:47:31.844Z,13.53
2018-08-30T03:50:36.796Z,14.97
2018-08-30T03:53:41.722Z,13.83
2018-08-30T03:56:46.704Z,13.13
2018-08-30T03:59:51.728Z,13.20
2018-08-30T04:02:56.662Z,14.23
2018-08-30T04:06:01.601Z,12.50
2018-08-30T04:09:07.572Z,11.00
2018-08-30T04:12:12.522Z,11.30
2018-08-30T04:15:17.506Z,11.13
2018-08-30T04:18:22.404Z,10.30
2018-08-30T04:21:27.337Z,10.83
2018-08-30T04:24:32.273Z,10.93
2018-08-30T04:27:37.196Z,11.10
2018-08-30T04:30:42.165Z,10.43
2018-08-30T04:33:47.108Z,9.47
2018-08-30T04:36:52.081Z,9.23
2018-08-30T04:39:57.009Z,9.53
2018-08-30T04:43:01.956Z,9.20
2018-08-30T04:46:06.876Z,8.80
2018-08-30T04:49:11.797Z,8.20
2018-08-30T04:52:16.740Z,7.90
2018-08-30T04:55:21.709Z,9.03
2018-08-30T04:58:26.654Z,9.40
2018-08-30T05:01:31.674Z,9.83
2018-08-30T05:04:36.671Z,9.20
2018-08-30T05:07:41.613Z,9.73
2018-08-30T05:10:46.574Z,9.40
2018-08-30T05:13:51.542Z,9.90
2018-08-30T05:16:56.489Z,8.90
2018-08-30T05:20:01.437Z,8.77
2018-08-30T05:23:06.907Z,9.53
2018-08-30T05:26:11.769Z,8.90
2018-08-30T05:29:16.696Z,8.70
2018-08-30T05:32:21.637Z,8.17
2018-08-30T05:35:26.776Z,9.17
2018-08-30T05:38:31.733Z,9.13
2018-08-30T05:41:36.660Z,8.43
2018-08-30T05:44:41.607Z,8.67
2018-08-30T05:47:46.552Z,8.37
2018-08-30T05:50:51.464Z,9.20
2018-08-30T05:53:56.412Z,8.03
2018-08-30T05:57:01.444Z,8.60
2018-08-30T06:00:06.349Z,9.03
2018-08-30T06:03:11.289Z,8.43
2018-08-30T06:06:16.200Z,9.17
2018-08-30T06:09:21.129Z,9.73
2018-08-30T06:12:26.217Z,9.47
2018-08-30T06:15:31.133Z,9.50
2018-08-30T06:18:36.049Z,9.40
2018-08-30T06:21:40.968Z,10.03
2018-08-30T06:24:45.887Z,10.40
2018-08-30T06:27:50.823Z,10.83
2018-08-30T06:30:55.733Z,10.20
2018-08-30T06:34:00.633Z,10.77
2018-08-30T06:37:05.595Z,10.90
2018-08-30T06:40:10.516Z,10.33
2018-08-30T06:43:15.424Z,10.83
2018-08-30T06:46:20.327Z,11.27
2018-08-30T06:49:25.270Z,10.67
2018-08-30T06:52:30.273Z,10.60
2018-08-30T06:55:35.172Z,10.93
2018-08-30T06:58:40.080Z,11.83
2018-08-30T07:01:44.989Z,10.40
2018-08-30T07:04:49.944Z,11.63
2018-08-30T07:07:54.860Z,11.10
2018-08-30T07:10:59.784Z,12.30
2018-08-30T07:14:05.318Z,11.17
2018-08-30T07:17:10.229Z,11.27
2018-08-30T07:20:15.188Z,11.57
2018-08-30T07:23:20.140Z,11.93
2018-08-30T07:26:25.085Z,12.23
2018-08-30T07:29:30.013Z,12.60
2018-08-30T07:32:34.937Z,11.90
2018-08-30T07:35:39.877Z,13.33
2018-08-30T07:38:44.868Z,12.70
2018-08-30T07:41:49.785Z,12.80
2018-08-30T07:44:54.773Z,14.20
2018-08-30T07:47:59.705Z,12.87
2018-08-30T07:51:05.063Z,14.23
2018-08-30T07:54:10.000Z,16.93
2018-08-30T07:57:14.947Z,16.30
2018-08-30T08:00:19.910Z,17.03
2018-08-30T08:03:24.845Z,17.40
2018-08-30T08:06:29.769Z,15.93
2018-08-30T08:09:34.699Z,16.83
2018-08-30T08:12:39.634Z,16.03
2018-08-30T08:15:44.593Z,17.47
2018-08-30T08:18:49.530Z,18.77
2018-08-30T08:21:54.477Z,18.43
2018-08-30T08:24:59.429Z,17.40
2018-08-30T08:28:04.372Z,18.40
2018-08-30T08:31:09.350Z,18.20
2018-08-30T08:34:14.233Z,17.03
2018-08-30T08:37:19.149Z,15.90
2018-08-30T08:40:24.105Z,15.43
2018-08-30T08:43:29.032Z,14.60
2018-08-30T08:46:33.969Z,14.80
2018-08-30T08:49:38.945Z,13.03
2018-08-30T08:52:43.876Z,12.50
2018-08-30T08:55:48.820Z,12.07
2018-08-30T08:58:53.904Z,12.17
2018-08-30T09:01:58.730Z,11.70
2018-08-30T09:05:03.712Z,12.27
2018-08-30T09:08:08.645Z,11.50
2018-08-30T09:11:13.584Z,12.07
2018-08-30T09:14:18.577Z,11.60
2018-08-30T09:17:23.460Z,11.70
2018-08-30T09:20:28.396Z,10.43
2018-08-30T09:23:33.350Z,10.83
2018-08-30T09:26:38.350Z,11.63
2018-08-30T09:29:43.269Z,11.20
2018-08-30T09:32:48.214Z,10.37
2018-08-30T09:35:53.176Z,9.97
2018-08-30T09:38:58.140Z,10.23
2018-08-30T09:42:03.320Z,10.43
2018-08-30T09:45:08.305Z,9.70
2018-08-30T09:48:13.252Z,10.20
2018-08-30T09:51:18.345Z,11.57
2018-08-30T09:54:23.305Z,10.73
2018-08-30T09:57:28.297Z,9.67
2018-08-30T10:00:38.811Z,11.00
2018-08-30T10:03:43.769Z,11.53
2018-08-30T10:06:48.694Z,12.40
2018-08-30T10:09:53.629Z,11.63
2018-08-30T10:12:58.552Z,12.77
2018-08-30T10:16:03.633Z,12.77
2018-08-30T10:19:08.495Z,12.20
2018-08-30T10:22:13.477Z,13.03
2018-08-30T10:25:18.417Z,11.97
2018-08-30T10:28:23.349Z,11.60
2018-08-30T10:31:28.551Z,11.40
2018-08-30T10:34:33.490Z,11.80
2018-08-30T10:37:38.405Z,10.87
2018-08-30T10:40:43.373Z,11.17
2018-08-30T10:43:48.328Z,11.50
2018-08-30T10:46:53.267Z,11.60
2018-08-30T10:49:58.282Z,12.00
2018-08-30T10:53:03.149Z,11.90
2018-08-30T10:56:08.125Z,11.97
2018-08-30T10:59:13.044Z,11.20
2018-08-30T11:02:18.016Z,12.33
2018-08-30T11:05:22.978Z,11.47
2018-08-30T11:08:27.906Z,11.77
2018-08-30T11:11:32.842Z,11.33
2018-08-30T11:14:37.763Z,10.93
2018-08-30T11:17:42.702Z,10.57
2018-08-30T11:20:47.646Z,11.00
2018-08-30T11:23:52.573Z,11.30
2018-08-30T11:26:57.489Z,11.17
2018-08-30T11:30:02.473Z,10.90
2018-08-30T11:33:07.427Z,11.20
2018-08-30T11:36:12.369Z,11.63
2018-08-30T11:39:17.276Z,11.27
2018-08-30T11:42:22.234Z,11.67
2018-08-30T11:45:27.141Z,11.50
2018-08-30T11:48:32.073Z,11.20
2018-08-30T11:51:37.050Z,11.50
2018-08-30T11:54:41.997Z,11.30
2018-08-30T11:57:46.946Z,11.23
2018-08-30T12:00:51.963Z,11.60
2018-08-30T12:03:57.204Z,11.83
2018-08-30T12:07:02.309Z,11.83
2018-08-30T12:10:07.151Z,10.50
2018-08-30T12:13:12.044Z,11.37
2018-08-30T12:16:16.960Z,11.00
2018-08-30T12:19:21.876Z,10.77
2018-08-30T12:22:26.849Z,10.70
2018-08-30T12:25:31.794Z,10.10
2018-08-30T12:28:37.308Z,11.27
2018-08-30T12:31:42.293Z,10.13
2018-08-30T12:34:47.217Z,10.60
2018-08-30T12:37:52.237Z,10.07
2018-08-30T12:40:57.120Z,9.93
2018-08-30T12:44:02.126Z,10.23
2018-08-30T12:47:07.113Z,10.83
2018-08-30T12:50:12.112Z,9.93
2018-08-30T12:53:17.027Z,10.93
2018-08-30T12:56:22.004Z,10.10
2018-08-30T12:59:32.684Z,9.90
2018-08-30T13:02:37.640Z,11.00
2018-08-30T13:05:42.815Z,10.27
2018-08-30T13:08:47.699Z,10.10
2018-08-30T13:11:52.567Z,11.20
2018-08-30T13:14:57.706Z,10.70
2018-08-30T13:18:02.501Z,10.57
2018-08-30T13:21:07.592Z,10.50
2018-08-30T13:24:12.410Z,10.43
2018-08-30T13:27:17.339Z,10.13
2018-08-30T13:30:22.470Z,10.63
2018-08-30T13:33:27.462Z,10.17
2018-08-30T13:36:32.240Z,10.27
2018-08-30T13:39:37.395Z,10.10
2018-08-30T13:42:42.362Z,10.73
2018-08-30T13:45:47.335Z,9.97
2018-08-30T13:48:52.069Z,10.00
2018-08-30T13:51:57.217Z,10.57
2018-08-30T13:55:02.438Z,9.37
2018-08-30T13:58:06.997Z,9.30
2018-08-30T14:01:12.178Z,10.43
2018-08-30T14:04:16.826Z,10.23
2018-08-30T14:07:21.836Z,10.00
2018-08-30T14:10:27.009Z,9.60
2018-08-30T14:13:31.807Z,10.50
2018-08-30T14:16:36.416Z,9.07
2018-08-30T14:19:41.389Z,9.97
2018-08-30T14:22:46.415Z,8.90
2018-08-30T14:25:51.296Z,8.57
2018-08-30T14:28:56.201Z,8.07
2018-08-30T14:32:01.207Z,8.63
2018-08-30T14:35:06.055Z,7.77
2018-08-30T14:38:10.985Z,7.90
2018-08-30T14:41:16.151Z,6.70
2018-08-30T14:44:20.828Z,6.90
2018-08-30T14:47:25.997Z,8.20
2018-08-30T14:50:30.664Z,7.30
2018-08-30T14:53:35.584Z,7.80
2018-08-30T14:56:40.503Z,7.53
2018-08-30T14:59:46.282Z,8.60
2018-08-30T15:02:51.228Z,7.93
2018-08-30T15:05:56.334Z,8.10
2018-08-30T15:09:01.131Z,7.27
2018-08-30T15:12:05.994Z,7.53
2018-08-30T15:15:10.949Z,8.37
2018-08-30T15:18:15.855Z,8.10
2018-08-30T15:21:20.799Z,7.70
2018-08-30T15:24:25.729Z,8.23
2018-08-30T15:27:30.680Z,7.03
2018-08-30T15:30:35.605Z,7.33
2018-08-30T15:33:40.555Z,7.97
2018-08-30T15:36:45.507Z,7.67
2018-08-30T15:39:50.441Z,8.23
2018-08-30T15:42:55.477Z,7.90
2018-08-30T15:46:00.325Z,7.80
2018-08-30T15:49:05.305Z,7.30
2018-08-30T15:52:10.254Z,6.73
2018-08-30T15:55:15.205Z,7.97
2018-08-30T15:58:20.145Z,7.53
2018-08-30T16:01:25.081Z,7.13
2018-08-30T16:04:30.029Z,7.73
2018-08-30T16:07:34.965Z,7.93
2018-08-30T16:10:39.918Z,7.20
2018-08-30T16:13:44.861Z,7.50
2018-08-30T16:16:49.819Z,6.97
2018-08-30T16:19:54.760Z,6.67
2018-08-30T16:23:32.729Z,6.60
2018-08-30T16:26:37.649Z,6.93
2018-08-30T16:29:42.632Z,6.93
2018-08-30T16:32:47.579Z,6.60
2018-08-30T16:35:52.580Z,6.40
2018-08-30T16:38:57.512Z,6.20
2018-08-30T16:42:02.464Z,5.43
2018-08-30T16:45:07.516Z,6.47
2018-08-30T16:48:12.610Z,6.07
2018-08-30T16:51:17.568Z,5.63
2018-08-30T16:54:22.513Z,4.97
2018-08-30T16:57:27.486Z,4.90
2018-08-30T17:00:32.558Z,5.10
2018-08-30T17:03:37.489Z,4.63
2018-08-30T17:06:42.448Z,4.57
2018-08-30T17:09:47.402Z,4.10
2018-08-30T17:12:51.850Z,4.50
2018-08-30T17:15:56.785Z,5.10
2018-08-30T17:19:09.717Z,4.83
2018-08-30T17:22:14.628Z,5.10
2018-08-30T17:25:19.643Z,4.93
2018-08-30T17:28:24.466Z,4.27
2018-08-30T17:31:29.382Z,3.60
2018-08-30T17:34:34.292Z,3.40
2018-08-30T17:37:39.203Z,3.10
2018-08-30T17:40:44.126Z,3.23
2018-08-30T17:43:49.044Z,3.17
2018-08-30T17:46:53.980Z,2.90
2018-08-30T17:49:58.905Z,3.13
2018-08-30T17:53:03.831Z,2.97
2018-08-30T17:56:08.903Z,3.17
2018-08-30T18:02:31.401Z,3.47
2018-08-30T18:05:36.326Z,3.20
2018-08-30T18:08:41.256Z,3.03
2018-08-30T18:11:46.228Z,3.10
2018-08-30T18:14:51.129Z,2.60
2018-08-30T18:17:56.078Z,3.10
2018-08-30T18:21:00.973Z,2.80
2018-08-30T18:24:05.963Z,3.27
2018-08-30T18:27:10.884Z,2.97
2018-08-30T18:30:15.838Z,3.50
2018-08-30T18:33:20.742Z,2.83
2018-08-30T18:36:25.709Z,3.37
2018-08-30T18:39:30.625Z,3.33
2018-08-30T18:42:35.532Z,3.20
2018-08-30T18:45:40.445Z,3.00
2018-08-30T18:48:45.377Z,3.17
2018-08-30T18:51:50.305Z,3.37
2018-08-30T18:54:55.236Z,3.37
2018-08-30T18:58:00.169Z,3.20
2018-08-30T19:01:05.219Z,3.50
2018-08-30T19:04:10.097Z,2.90
2018-08-30T19:07:15.050Z,3.10
2018-08-30T19:10:19.965Z,3.33
2018-08-30T19:13:24.992Z,3.33
2018-08-30T19:16:35.599Z,3.47
2018-08-30T19:19:40.549Z,3.40
2018-08-30T19:22:45.460Z,3.03
2018-08-30T19:25:50.377Z,3.13
2018-08-30T19:28:55.268Z,3.37
2018-08-30T19:32:00.213Z,3.20
2018-08-30T19:35:10.841Z,3.40
2018-08-30T19:38:15.757Z,3.90
2018-08-30T19:41:21.652Z,3.43
2018-08-30T19:44:26.581Z,3.10
2018-08-30T19:47:31.505Z,2.97
2018-08-30T19:50:36.420Z,3.00
2018-08-30T19:53:41.691Z,3.03
2018-08-30T19:56:46.601Z,3.23
2018-08-30T19:59:51.511Z,3.07
2018-08-30T20:02:56.407Z,3.20
2018-08-30T20:06:01.334Z,3.30
2018-08-30T20:09:06.316Z,3.13
2018-08-30T20:12:11.385Z,3.03
2018-08-30T20:15:16.341Z,3.43
2018-08-30T20:18:21.274Z,3.10
2018-08-30T20:21:26.239Z,2.57
2018-08-30T20:24:31.167Z,2.93
2018-08-30T20:27:36.094Z,2.83
2018-08-30T20:30:41.013Z,3.27
2018-08-30T20:33:45.941Z,3.47
2018-08-30T20:36:50.853Z,3.40
2018-08-30T20:39:55.768Z,3.40
2018-08-30T20:43:00.709Z,3.03
2018-08-30T20:46:05.659Z,2.87
2018-08-30T20:49:10.565Z,3.03
2018-08-30T20:52:15.509Z,3.20
2018-08-30T20:55:20.427Z,3.50
2018-08-30T20:58:25.339Z,3.37
2018-08-30T21:01:30.242Z,3.60
2018-08-30T21:04:35.133Z,3.70
2018-08-30T21:07:40.044Z,3.37
2018-08-30T21:10:44.945Z,3.43
2018-08-30T21:13:49.874Z,3.10
2018-08-30T21:16:54.785Z,3.00
2018-08-30T21:19:59.698Z,2.80
2018-08-30T21:23:04.636Z,2.33
2018-08-30T21:26:09.570Z,2.97
2018-08-30T21:29:14.497Z,3.03
2018-08-30T21:32:19.477Z,3.00
2018-08-30T21:35:24.453Z,2.93
2018-08-30T21:38:29.376Z,2.97
2018-08-30T21:41:34.314Z,2.50
2018-08-30T21:44:39.256Z,2.70
2018-08-30T21:47:44.172Z,2.70
2018-08-30T21:50:49.158Z,3.30
2018-08-30T21:53:54.100Z,3.40
2018-08-30T21:56:59.041Z,3.20
2018-08-30T22:03:44.646Z,3.30
2018-08-30T22:06:49.606Z,3.13
2018-08-30T22:09:54.538Z,2.77
2018-08-30T22:12:59.494Z,2.77
2018-08-30T22:16:04.442Z,2.97
2018-08-30T22:19:09.384Z,2.80
2018-08-30T22:22:14.337Z,2.80
2018-08-30T22:25:19.268Z,3.67
2018-08-30T22:28:24.233Z,3.23
2018-08-30T22:31:29.185Z,3.50
2018-08-30T22:34:34.133Z,3.27
2018-08-30T22:37:39.074Z,3.20
2018-08-30T22:40:44.052Z,2.83
2018-08-30T22:43:48.990Z,3.10
2018-08-30T22:46:54.120Z,3.00
2018-08-30T22:49:59.074Z,3.00
2018-08-30T22:53:04.033Z,2.97
2018-08-30T22:56:08.964Z,3.37
2018-08-30T22:59:13.911Z,3.00
2018-08-30T23:02:18.845Z,3.27
2018-08-30T23:05:23.864Z,2.53
2018-08-30T23:08:28.820Z,2.80
2018-08-30T23:11:33.796Z,3.10
2018-08-30T23:14:38.744Z,2.83
2018-08-30T23:17:43.708Z,2.47
2018-08-30T23:20:48.655Z,2.80
2018-08-30T23:23:53.610Z,3.00
2018-08-30T23:26:58.540Z,2.67
2018-08-30T23:30:03.733Z,2.90
2018-08-30T23:33:08.681Z,2.93
2018-08-30T23:36:13.626Z,3.27
2018-08-30T23:39:18.569Z,2.93
2018-08-30T23:42:23.521Z,3.23
2018-08-30T23:45:28.444Z,2.90
2018-08-30T23:48:33.381Z,2.70
2018-08-30T23:51:38.313Z,2.93
2018-08-30T23:54:43.264Z,3.07
2018-08-30T23:57:59.906Z,2.40
